createdAt,value
2018-02-25T00:02:07.498Z,54.97
2018-02-25T00:04:34.969Z,55.07
2018-02-25T00:07:02.585Z,55.33
2018-02-25T00:09:30.034Z,55.06
2018-02-25T00:11:57.472Z,55.00
2018-02-25T00:14:25.094Z,55.40
2018-02-25T00:16:52.533Z,55.60
2018-02-25T00:19:19.981Z,55.71
2018-02-25T00:21:47.581Z,56.00
2018-02-25T00:24:15.330Z,55.93
2018-02-25T00:26:42.825Z,55.42
2018-02-25T00:29:10.529Z,55.44
2018-02-25T00:31:37.984Z,55.45
2018-02-25T00:34:05.441Z,55.85
2018-02-25T00:36:33.345Z,56.07
2018-02-25T00:39:00.785Z,56.02
2018-02-25T00:41:28.225Z,55.62
2018-02-25T00:43:55.720Z,55.61
2018-02-25T00:46:23.166Z,55.37
2018-02-25T00:48:50.608Z,56.17
2018-02-25T00:51:18.193Z,55.86
2018-02-25T00:53:45.641Z,55.63
2018-02-25T00:56:13.097Z,56.24
2018-02-25T00:58:40.789Z,56.29
2018-02-25T01:01:08.233Z,56.29
2018-02-25T01:03:35.677Z,56.61
2018-02-25T01:06:03.405Z,56.83
2018-02-25T01:08:30.844Z,57.05
2018-02-25T01:10:58.541Z,57.13
2018-02-25T01:13:26.053Z,56.83
2018-02-25T01:15:53.514Z,56.93
2018-02-25T01:18:20.957Z,56.99
2018-02-25T01:20:48.524Z,56.90
2018-02-25T01:23:16.037Z,56.97
2018-02-25T01:25:43.533Z,57.21
2018-02-25T01:28:11.161Z,57.20
2018-02-25T01:30:38.638Z,57.43
2018-02-25T01:33:06.081Z,57.24
2018-02-25T01:35:33.917Z,57.43
2018-02-25T01:38:01.369Z,57.38
2018-02-25T01:40:28.853Z,57.44
2018-02-25T01:42:56.461Z,57.23
2018-02-25T01:45:23.916Z,57.73
2018-02-25T01:47:51.386Z,57.60
2018-02-25T01:50:19.073Z,57.69
2018-02-25T01:52:46.521Z,57.66
2018-02-25T01:55:13.961Z,57.50
2018-02-25T01:57:41.516Z,57.19
2018-02-25T02:00:08.978Z,57.27
2018-02-25T02:02:36.481Z,57.32
2018-02-25T02:05:03.949Z,57.75
2018-02-25T02:07:31.394Z,57.32
2018-02-25T02:09:58.987Z,57.09
2018-02-25T02:12:26.713Z,57.64
2018-02-25T02:14:54.173Z,57.54
2018-02-25T02:17:21.621Z,57.69
2018-02-25T02:19:49.128Z,57.73
2018-02-25T02:22:16.769Z,57.66
2018-02-25T02:24:44.232Z,57.64
2018-02-25T02:27:11.773Z,57.78
2018-02-25T02:29:39.215Z,58.09
2018-02-25T02:32:06.657Z,57.95
2018-02-25T02:34:34.450Z,57.86
2018-02-25T02:37:01.915Z,57.70
2018-02-25T02:39:29.356Z,57.95
2018-02-25T02:41:56.820Z,57.96
2018-02-25T02:44:24.261Z,58.09
2018-02-25T02:46:52.130Z,58.07
2018-02-25T02:49:19.575Z,58.06
2018-02-25T02:51:47.022Z,58.24
2018-02-25T02:54:14.487Z,58.03
2018-02-25T02:56:41.928Z,58.13
2018-02-25T02:59:09.885Z,58.20
2018-02-25T03:01:37.497Z,58.42
2018-02-25T03:04:04.951Z,58.98
2018-02-25T03:06:32.416Z,58.79
2018-02-25T03:09:00.201Z,59.29
2018-02-25T03:11:27.852Z,59.12
2018-02-25T03:13:55.302Z,58.91
2018-02-25T03:16:22.750Z,58.70
2018-02-25T03:18:50.220Z,59.05
2018-02-25T03:21:17.670Z,58.95
2018-02-25T03:23:45.376Z,58.86
2018-02-25T03:26:12.817Z,58.82
2018-02-25T03:28:40.265Z,58.62
2018-02-25T03:31:07.730Z,59.02
2018-02-25T03:33:35.193Z,59.23
2018-02-25T03:36:03.029Z,59.56
2018-02-25T03:38:30.590Z,59.87
2018-02-25T03:40:58.050Z,59.26
2018-02-25T03:43:26.334Z,59.30
2018-02-25T03:45:53.837Z,59.86
2018-02-25T03:48:21.505Z,60.32
2018-02-25T03:50:48.955Z,60.25
2018-02-25T03:53:16.421Z,60.44
2018-02-25T03:55:44.057Z,60.30
2018-02-25T03:58:11.506Z,60.29
2018-02-25T04:00:39.365Z,60.06
2018-02-25T04:03:06.837Z,60.17
2018-02-25T04:05:34.284Z,59.95
2018-02-25T04:08:01.760Z,60.15
2018-02-25T04:10:29.214Z,60.25
2018-02-25T04:12:56.845Z,59.96
2018-02-25T04:15:24.289Z,59.93
2018-02-25T04:17:51.729Z,60.32
2018-02-25T04:20:19.213Z,60.68
2018-02-25T04:22:46.669Z,60.75
2018-02-25T04:25:14.413Z,60.45
2018-02-25T04:27:41.853Z,60.80
2018-02-25T04:30:09.293Z,61.38
2018-02-25T04:32:36.791Z,61.33
2018-02-25T04:35:04.241Z,61.11
2018-02-25T04:37:31.825Z,61.17
2018-02-25T04:39:59.265Z,60.97
2018-02-25T04:42:27.945Z,61.06
2018-02-25T04:44:55.425Z,60.87
2018-02-25T04:47:22.866Z,60.37
2018-02-25T04:49:50.345Z,60.26
2018-02-25T04:52:17.873Z,60.43
2018-02-25T04:54:45.418Z,60.58
2018-02-25T04:57:12.909Z,60.68
2018-02-25T04:59:40.349Z,60.24
2018-02-25T05:02:07.824Z,60.24
2018-02-25T05:04:35.299Z,60.15
2018-02-25T05:07:02.748Z,60.15
2018-02-25T05:09:30.265Z,60.34
2018-02-25T05:11:57.709Z,60.24
2018-02-25T05:14:25.408Z,60.57
2018-02-25T05:16:52.861Z,60.69
2018-02-25T05:19:20.305Z,60.58
2018-02-25T05:21:47.769Z,60.52
2018-02-25T05:24:15.253Z,60.72
2018-02-25T05:26:42.737Z,60.92
2018-02-25T05:29:10.521Z,61.17
2018-02-25T05:31:37.993Z,61.31
2018-02-25T05:34:05.452Z,61.40
2018-02-25T05:36:32.902Z,60.87
2018-02-25T05:39:00.710Z,61.18
2018-02-25T05:41:28.332Z,61.36
2018-02-25T05:43:55.781Z,61.70
2018-02-25T05:46:23.257Z,61.91
2018-02-25T05:48:50.697Z,61.80
2018-02-25T05:51:18.522Z,61.94
2018-02-25T05:53:45.972Z,61.89
2018-02-25T05:56:13.436Z,62.05
2018-02-25T05:58:40.897Z,62.18
2018-02-25T06:01:08.341Z,61.86
2018-02-25T06:03:36.021Z,61.80
2018-02-25T06:06:03.461Z,62.03
2018-02-25T06:08:30.905Z,61.94
2018-02-25T06:10:58.372Z,62.55
2018-02-25T06:13:25.842Z,62.57
2018-02-25T06:15:53.469Z,62.98
2018-02-25T06:18:20.932Z,62.61
2018-02-25T06:20:48.378Z,61.23
2018-02-25T06:23:15.884Z,61.55
2018-02-25T06:25:43.344Z,62.09
2018-02-25T06:28:11.557Z,61.92
2018-02-25T06:30:39.072Z,61.92
2018-02-25T06:33:06.525Z,61.98
2018-02-25T06:35:33.988Z,62.46
2018-02-25T06:38:01.485Z,62.63
2018-02-25T06:40:30.140Z,61.61
2018-02-25T06:42:57.665Z,62.15
2018-02-25T06:45:25.597Z,62.36
2018-02-25T06:47:53.120Z,61.95
2018-02-25T06:50:20.558Z,62.13
2018-02-25T06:52:48.176Z,62.23
2018-02-25T06:55:15.622Z,61.78
2018-02-25T06:57:43.073Z,61.67
2018-02-25T07:00:10.572Z,61.65
2018-02-25T07:02:38.017Z,61.56
2018-02-25T07:05:05.653Z,61.62
2018-02-25T07:07:33.097Z,61.27
2018-02-25T07:10:00.547Z,61.21
2018-02-25T07:12:28.016Z,61.29
2018-02-25T07:14:55.475Z,60.82
2018-02-25T07:17:23.180Z,60.57
2018-02-25T07:19:50.628Z,60.46
2018-02-25T07:22:18.080Z,60.65
2018-02-25T07:24:45.565Z,60.45
2018-02-25T07:27:13.516Z,60.19
2018-02-25T07:29:41.245Z,60.15
2018-02-25T07:32:08.710Z,60.07
2018-02-25T07:34:36.162Z,59.76
2018-02-25T07:37:03.625Z,60.07
2018-02-25T07:39:31.144Z,59.39
2018-02-25T07:41:58.801Z,59.04
2018-02-25T07:44:26.245Z,59.11
2018-02-25T07:46:53.722Z,59.24
2018-02-25T07:49:21.201Z,59.11
2018-02-25T07:51:48.665Z,58.70
2018-02-25T07:54:16.146Z,57.93
2018-02-25T07:56:43.605Z,58.24
2018-02-25T07:59:11.057Z,57.65
2018-02-25T08:01:38.533Z,57.62
2018-02-25T08:04:05.978Z,57.21
2018-02-25T08:06:33.465Z,56.75
2018-02-25T08:09:00.909Z,56.64
2018-02-25T08:11:28.349Z,56.14
2018-02-25T08:13:55.914Z,55.85
2018-02-25T08:16:23.437Z,55.77
2018-02-25T08:18:51.045Z,55.17
2018-02-25T08:21:18.489Z,55.17
2018-02-25T08:23:45.933Z,53.99
2018-02-25T08:26:13.705Z,53.73
2018-02-25T08:28:41.168Z,53.48
2018-02-25T08:31:08.638Z,53.00
2018-02-25T08:33:36.080Z,52.90
2018-02-25T08:36:03.534Z,52.65
2018-02-25T08:38:31.014Z,51.97
2018-02-25T08:40:58.481Z,51.07
2018-02-25T08:43:26.098Z,50.26
2018-02-25T08:45:53.560Z,51.57
2018-02-25T08:48:21.018Z,50.63
2018-02-25T08:50:48.484Z,50.79
2018-02-25T08:53:15.929Z,50.79
2018-02-25T08:55:43.565Z,49.64
2018-02-25T08:58:11.012Z,49.96
2018-02-25T09:00:38.471Z,50.07
2018-02-25T09:03:05.934Z,49.72
2018-02-25T09:05:33.409Z,49.09
2018-02-25T09:08:00.879Z,47.94
2018-02-25T09:10:28.367Z,46.75
2018-02-25T09:12:56.072Z,46.94
2018-02-25T09:15:23.536Z,47.43
2018-02-25T09:17:50.991Z,46.34
2018-02-25T09:20:18.637Z,45.71
2018-02-25T09:22:46.062Z,45.16
2018-02-25T09:25:14.025Z,42.89
2018-02-25T09:27:41.512Z,43.23
2018-02-25T09:30:09.673Z,43.52
2018-02-25T09:32:37.158Z,43.27
2018-02-25T09:35:04.684Z,43.23
2018-02-25T09:37:32.147Z,42.97
2018-02-25T09:39:59.629Z,42.80
2018-02-25T09:42:27.085Z,42.23
2018-02-25T09:44:54.561Z,42.06
2018-02-25T09:47:22.026Z,42.26
2018-02-25T09:49:49.470Z,41.44
2018-02-25T09:52:16.934Z,41.40
2018-02-25T09:54:44.373Z,42.27
2018-02-25T09:57:11.849Z,42.14
2018-02-25T09:59:39.290Z,40.63
2018-02-25T10:02:06.732Z,40.48
2018-02-25T10:04:34.220Z,40.06
2018-02-25T10:07:01.709Z,40.68
2018-02-25T10:09:29.560Z,39.98
2018-02-25T10:11:57.507Z,40.14
2018-02-25T10:14:24.963Z,39.70
2018-02-25T10:16:52.442Z,39.55
2018-02-25T10:19:19.905Z,39.46
2018-02-25T10:21:47.589Z,40.07
2018-02-25T10:24:15.114Z,40.41
2018-02-25T10:26:42.581Z,39.04
2018-02-25T10:29:10.045Z,38.53
2018-02-25T10:31:37.517Z,38.84
2018-02-25T10:34:04.996Z,39.59
2018-02-25T10:36:32.445Z,39.42
2018-02-25T10:38:59.901Z,39.66
2018-02-25T10:41:27.384Z,38.27
2018-02-25T10:43:54.834Z,38.27
2018-02-25T10:46:22.694Z,38.42
2018-02-25T10:48:50.169Z,41.00
2018-02-25T10:51:17.653Z,40.26
2018-02-25T10:53:45.126Z,40.59
2018-02-25T10:56:12.572Z,40.28
2018-02-25T10:58:40.553Z,38.59
2018-02-25T11:01:08.102Z,39.59
2018-02-25T11:03:35.632Z,39.96
2018-02-25T11:06:03.100Z,40.10
2018-02-25T11:08:30.560Z,41.17
2018-02-25T11:10:58.318Z,41.12
2018-02-25T11:13:25.781Z,40.72
2018-02-25T11:15:53.236Z,40.18
2018-02-25T11:18:20.713Z,40.50
2018-02-25T11:20:48.258Z,40.36
2018-02-25T11:23:15.753Z,40.27
2018-02-25T11:25:43.229Z,39.98
2018-02-25T11:28:10.677Z,39.27
2018-02-25T11:30:38.152Z,38.95
2018-02-25T11:33:05.602Z,39.73
2018-02-25T11:35:33.085Z,40.48
2018-02-25T11:38:00.541Z,40.48
2018-02-25T11:40:27.985Z,40.19
2018-02-25T11:42:55.453Z,39.91
2018-02-25T11:45:23.071Z,39.63
2018-02-25T11:47:50.975Z,39.55
2018-02-25T11:50:18.433Z,39.28
2018-02-25T11:52:45.878Z,38.90
2018-02-25T11:55:13.392Z,38.60
2018-02-25T11:57:40.833Z,38.83
2018-02-25T12:00:08.628Z,38.54
2018-02-25T12:02:36.073Z,38.03
2018-02-25T12:05:03.522Z,38.19
2018-02-25T12:07:30.987Z,37.64
2018-02-25T12:09:58.441Z,37.08
2018-02-25T12:12:26.194Z,37.36
2018-02-25T12:14:59.273Z,37.41
2018-02-25T12:17:21.102Z,36.52
2018-02-25T12:19:48.602Z,37.27
2018-02-25T12:22:16.045Z,36.90
2018-02-25T12:24:43.730Z,36.52
2018-02-25T12:27:11.169Z,36.30
2018-02-25T12:29:38.638Z,36.60
2018-02-25T12:32:06.585Z,35.70
2018-02-25T12:34:34.049Z,36.28
2018-02-25T12:37:02.514Z,35.86
2018-02-25T12:39:29.975Z,36.67
2018-02-25T12:41:57.445Z,36.34
2018-02-25T12:44:24.932Z,35.47
2018-02-25T12:46:52.397Z,35.84
2018-02-25T12:49:20.029Z,35.89
2018-02-25T12:51:47.501Z,35.83
2018-02-25T12:54:14.968Z,36.14
2018-02-25T12:56:42.446Z,36.24
2018-02-25T12:59:09.910Z,35.52
2018-02-25T13:01:37.613Z,35.38
2018-02-25T13:04:05.058Z,34.76
2018-02-25T13:06:32.533Z,34.78
2018-02-25T13:09:00.001Z,34.83
2018-02-25T13:11:27.449Z,35.64
2018-02-25T13:13:55.265Z,35.30
2018-02-25T13:16:22.748Z,35.59
2018-02-25T13:18:50.241Z,34.66
2018-02-25T13:21:17.736Z,34.79
2018-02-25T13:23:45.185Z,34.58
2018-02-25T13:26:12.672Z,34.11
2018-02-25T13:28:40.120Z,34.47
2018-02-25T13:31:08.449Z,34.34
2018-02-25T13:33:36.022Z,33.88
2018-02-25T13:36:03.465Z,34.33
2018-02-25T13:38:30.952Z,33.49
2018-02-25T13:40:58.395Z,33.84
2018-02-25T13:43:25.893Z,33.19
2018-02-25T13:45:53.385Z,33.19
2018-02-25T13:48:20.826Z,33.92
2018-02-25T13:50:48.309Z,33.27
2018-02-25T13:53:15.799Z,33.32
2018-02-25T13:55:43.237Z,33.09
2018-02-25T13:58:10.715Z,33.25
2018-02-25T14:00:38.160Z,32.96
2018-02-25T14:03:05.599Z,32.71
2018-02-25T14:05:33.211Z,32.42
2018-02-25T14:08:00.653Z,32.68
2018-02-25T14:10:28.096Z,32.31
2018-02-25T14:12:55.873Z,31.78
2018-02-25T14:15:23.401Z,31.77
2018-02-25T14:17:50.850Z,32.10
2018-02-25T14:20:18.428Z,31.69
2018-02-25T14:22:45.869Z,32.12
2018-02-25T14:25:13.322Z,31.81
2018-02-25T14:27:40.785Z,31.77
2018-02-25T14:30:08.245Z,32.21
2018-02-25T14:32:36.033Z,31.28
2018-02-25T14:35:03.822Z,31.34
2018-02-25T14:37:31.271Z,30.97
2018-02-25T14:39:58.731Z,30.75
2018-02-25T14:42:26.791Z,31.49
2018-02-25T14:44:54.258Z,31.63
2018-02-25T14:47:21.712Z,31.74
2018-02-25T14:49:49.153Z,31.34
2018-02-25T14:52:16.650Z,32.03
2018-02-25T14:54:44.086Z,31.45
2018-02-25T14:57:11.669Z,31.52
2018-02-25T14:59:39.109Z,31.56
2018-02-25T15:02:06.562Z,31.30
2018-02-25T15:04:34.025Z,31.50
2018-02-25T15:07:01.470Z,31.53
2018-02-25T15:09:29.118Z,32.16
2018-02-25T15:11:56.554Z,31.90
2018-02-25T15:14:23.993Z,31.98
2018-02-25T15:16:51.462Z,31.84
2018-02-25T15:19:18.916Z,31.78
2018-02-25T15:21:46.554Z,31.25
2018-02-25T15:24:14.043Z,31.70
2018-02-25T15:26:41.486Z,32.19
2018-02-25T15:29:08.966Z,32.06
2018-02-25T15:31:36.508Z,31.70
2018-02-25T15:34:03.981Z,32.15
2018-02-25T15:36:31.430Z,32.60
2018-02-25T15:38:58.949Z,32.92
2018-02-25T15:41:27.206Z,32.36
2018-02-25T15:43:54.668Z,32.64
2018-02-25T15:46:22.132Z,31.98
2018-02-25T15:48:49.573Z,32.32
2018-02-25T15:51:17.215Z,32.37
2018-02-25T15:53:44.669Z,32.49
2018-02-25T15:56:12.146Z,32.51
2018-02-25T15:58:39.610Z,32.74
2018-02-25T16:01:07.053Z,32.27
2018-02-25T16:03:35.577Z,32.37
2018-02-25T16:06:03.028Z,32.25
2018-02-25T16:08:30.479Z,32.87
2018-02-25T16:10:57.955Z,32.85
2018-02-25T16:13:25.445Z,33.39
2018-02-25T16:15:53.061Z,33.18
2018-02-25T16:18:20.838Z,33.12
2018-02-25T16:20:48.293Z,33.66
2018-02-25T16:23:15.753Z,33.54
2018-02-25T16:25:43.231Z,33.97
2018-02-25T16:28:10.750Z,33.57
2018-02-25T16:30:38.273Z,33.48
2018-02-25T16:33:05.726Z,33.96
2018-02-25T16:35:33.217Z,34.43
2018-02-25T16:38:00.665Z,34.84
2018-02-25T16:40:28.148Z,34.62
2018-02-25T16:42:55.621Z,35.06
2018-02-25T16:45:23.061Z,35.12
2018-02-25T16:47:50.522Z,34.94
2018-02-25T16:50:17.982Z,35.14
2018-02-25T16:52:45.842Z,35.56
2018-02-25T16:55:13.486Z,35.35
2018-02-25T16:57:40.930Z,35.65
2018-02-25T17:00:08.396Z,35.97
2018-02-25T17:02:35.841Z,36.42
2018-02-25T17:05:03.317Z,36.25
2018-02-25T17:07:30.766Z,36.95
2018-02-25T17:09:58.229Z,37.45
2018-02-25T17:12:25.714Z,37.97
2018-02-25T17:14:53.217Z,37.59
2018-02-25T17:17:21.879Z,38.12
2018-02-25T17:19:49.604Z,38.13
2018-02-25T17:22:17.054Z,37.91
2018-02-25T17:24:44.533Z,38.13
2018-02-25T17:27:12.455Z,38.35
2018-02-25T17:29:40.225Z,38.22
2018-02-25T17:32:07.670Z,38.38
2018-02-25T17:34:35.258Z,38.80
2018-02-25T17:37:02.742Z,39.58
2018-02-25T17:39:30.223Z,40.43
2018-02-25T17:41:57.730Z,40.48
2018-02-25T17:44:25.200Z,40.80
2018-02-25T17:46:52.677Z,40.47
2018-02-25T17:49:20.180Z,39.83
2018-02-25T17:51:47.643Z,40.20
2018-02-25T17:54:15.234Z,40.03
2018-02-25T17:56:42.685Z,39.02
2018-02-25T17:59:10.133Z,39.84
2018-02-25T18:01:37.610Z,39.75
2018-02-25T18:04:05.082Z,40.10
2018-02-25T18:06:32.989Z,40.47
2018-02-25T18:09:00.485Z,40.40
2018-02-25T18:11:27.932Z,40.23
2018-02-25T18:13:55.681Z,40.65
2018-02-25T18:16:24.059Z,39.97
2018-02-25T18:18:51.769Z,39.93
2018-02-25T18:21:19.209Z,40.25
2018-02-25T18:23:46.654Z,40.05
2018-02-25T18:26:14.138Z,40.26
2018-02-25T18:28:41.598Z,40.28
2018-02-25T18:31:09.221Z,40.20
2018-02-25T18:33:36.689Z,39.64
2018-02-25T18:36:04.141Z,40.04
2018-02-25T18:38:31.633Z,40.33
2018-02-25T18:40:59.092Z,40.46
2018-02-25T18:43:26.583Z,40.55
2018-02-25T18:45:54.026Z,40.11
2018-02-25T18:48:21.481Z,40.49
2018-02-25T18:50:48.941Z,40.43
2018-02-25T18:53:16.381Z,40.39
2018-02-25T18:55:44.157Z,40.75
2018-02-25T18:58:11.609Z,40.76
2018-02-25T19:00:39.716Z,39.91
2018-02-25T19:03:07.258Z,40.50
2018-02-25T19:05:34.702Z,40.70
2018-02-25T19:08:02.181Z,40.21
2018-02-25T19:10:29.658Z,40.06
2018-02-25T19:12:57.189Z,39.86
2018-02-25T19:15:24.637Z,39.97
2018-02-25T19:17:52.076Z,39.34
2018-02-25T19:20:19.540Z,39.80
2018-02-25T19:22:47.005Z,40.12
2018-02-25T19:25:14.885Z,39.57
2018-02-25T19:27:42.342Z,39.68
2018-02-25T19:30:09.791Z,39.29
2018-02-25T19:32:37.266Z,39.28
2018-02-25T19:35:04.742Z,39.34
2018-02-25T19:37:37.945Z,39.18
2018-02-25T19:40:05.396Z,39.73
2018-02-25T19:42:32.883Z,39.27
2018-02-25T19:45:00.325Z,39.36
2018-02-25T19:47:27.914Z,39.71
2018-02-25T19:49:55.360Z,39.85
2018-02-25T19:52:22.801Z,39.70
2018-02-25T19:54:50.274Z,40.17
2018-02-25T19:57:17.725Z,39.76
2018-02-25T19:59:45.201Z,39.90
2018-02-25T20:02:12.675Z,40.28
2018-02-25T20:04:40.129Z,40.04
2018-02-25T20:07:07.594Z,40.42
2018-02-25T20:09:36.585Z,40.29
2018-02-25T20:12:04.072Z,40.56
2018-02-25T20:14:31.540Z,40.71
2018-02-25T20:16:58.986Z,40.79
2018-02-25T20:19:26.480Z,40.88
2018-02-25T20:21:53.924Z,40.67
2018-02-25T20:24:21.476Z,41.27
2018-02-25T20:26:48.893Z,41.14
2018-02-25T20:29:16.341Z,41.07
2018-02-25T20:31:43.848Z,41.39
2018-02-25T20:34:11.381Z,41.70
2018-02-25T20:36:39.100Z,41.87
2018-02-25T20:39:06.554Z,42.05
2018-02-25T20:41:34.943Z,42.30
2018-02-25T20:44:02.408Z,42.60
2018-02-25T20:46:30.137Z,42.41
2018-02-25T20:48:57.768Z,42.60
2018-02-25T20:51:25.222Z,42.70
2018-02-25T20:53:52.731Z,42.86
2018-02-25T20:56:20.149Z,42.91
2018-02-25T20:58:47.606Z,42.92
2018-02-25T21:01:15.253Z,43.36
2018-02-25T21:03:42.715Z,43.34
2018-02-25T21:06:10.161Z,43.73
2018-02-25T21:08:37.638Z,43.54
2018-02-25T21:11:05.081Z,43.72
2018-02-25T21:13:32.664Z,43.81
2018-02-25T21:16:00.118Z,44.21
2018-02-25T21:18:27.561Z,44.59
2018-02-25T21:20:55.029Z,44.30
2018-02-25T21:23:22.473Z,44.31
2018-02-25T21:25:50.096Z,44.49
2018-02-25T21:28:17.546Z,44.50
2018-02-25T21:30:45.036Z,44.90
2018-02-25T21:33:12.815Z,44.78
2018-02-25T21:35:40.369Z,45.19
2018-02-25T21:38:08.081Z,45.11
2018-02-25T21:40:35.586Z,45.88
2018-02-25T21:43:03.034Z,45.91
2018-02-25T21:45:31.379Z,45.53
2018-02-25T21:47:58.839Z,44.83
2018-02-25T21:50:26.564Z,44.31
2018-02-25T21:52:54.011Z,44.64
2018-02-25T21:55:21.466Z,45.11
2018-02-25T21:57:54.477Z,44.77
2018-02-25T22:03:32.565Z,44.26
2018-02-25T22:06:00.018Z,44.53
2018-02-25T22:08:27.461Z,44.61
2018-02-25T22:10:54.942Z,44.63
2018-02-25T22:13:22.385Z,44.90
2018-02-25T22:15:49.833Z,45.09
2018-02-25T22:18:17.293Z,45.40
2018-02-25T22:20:44.728Z,45.71
2018-02-25T22:23:12.169Z,46.01
2018-02-25T22:25:39.777Z,45.99
2018-02-25T22:28:07.221Z,46.45
2018-02-25T22:30:34.667Z,46.74
2018-02-25T22:33:02.407Z,46.89
2018-02-25T22:35:29.849Z,46.63
2018-02-25T22:37:57.289Z,47.17
2018-02-25T22:40:25.893Z,46.97
2018-02-25T22:42:53.361Z,47.39
2018-02-25T22:45:21.053Z,47.31
2018-02-25T22:47:48.536Z,47.25
2018-02-25T22:50:16.188Z,47.20
2018-02-25T22:52:43.630Z,47.24
2018-02-25T22:55:11.105Z,47.40
2018-02-25T22:57:38.554Z,47.87
2018-02-25T23:00:06.005Z,47.73
2018-02-25T23:02:33.865Z,47.88
2018-02-25T23:05:01.395Z,48.14
2018-02-25T23:07:28.845Z,48.18
2018-02-25T23:09:56.332Z,47.85
2018-02-25T23:12:23.776Z,47.71
2018-02-25T23:14:51.546Z,47.89
2018-02-25T23:17:19.015Z,47.84
2018-02-25T23:19:46.457Z,47.67
2018-02-25T23:22:13.918Z,47.82
2018-02-25T23:24:41.362Z,47.83
2018-02-25T23:27:09.173Z,47.87
2018-02-25T23:29:36.625Z,47.86
2018-02-25T23:32:04.081Z,47.98
2018-02-25T23:34:31.563Z,47.92
2018-02-25T23:36:59.009Z,47.93
2018-02-25T23:39:26.645Z,48.25
2018-02-25T23:41:54.097Z,48.43
2018-02-25T23:44:21.548Z,48.62
2018-02-25T23:46:49.017Z,48.39
2018-02-25T23:49:16.463Z,48.81
2018-02-25T23:51:43.946Z,49.10
2018-02-25T23:54:11.390Z,49.44
2018-02-25T23:56:38.834Z,49.10
2018-02-25T23:59:06.301Z,48.94
